sensor_id;sensor_type;location;lat;lon;timestamp;temperature;humidity
45735;DHT22;31446;49.632;8.328;2022-10-16T00:07:55;15.70;99.90
45735;DHT22;31446;49.632;8.328;2022-10-16T00:23:01;15.60;99.90
45735;DHT22;31446;49.632;8.328;2022-10-16T00:38:07;15.60;99.90
45735;DHT22;31446;49.632;8.328;2022-10-16T00:53:14;15.60;99.90
45735;DHT22;31446;49.632;8.328;2022-10-16T01:08:27;15.70;99.90
45735;DHT22;31446;49.632;8.328;2022-10-16T01:23:47;15.60;99.90
45735;DHT22;31446;49.632;8.328;2022-10-16T01:38:56;15.70;99.90
45735;DHT22;31446;49.632;8.328;2022-10-16T01:54:08;15.70;99.90
45735;DHT22;31446;49.632;8.328;2022-10-16T02:09:15;15.80;99.90
45735;DHT22;31446;49.632;8.328;2022-10-16T02:24:27;15.70;99.90
45735;DHT22;31446;49.632;8.328;2022-10-16T02:39:37;15.60;99.90
45735;DHT22;31446;49.632;8.328;2022-10-16T02:54:44;15.70;99.90
45735;DHT22;31446;49.632;8.328;2022-10-16T03:09:50;15.80;99.90
45735;DHT22;31446;49.632;8.328;2022-10-16T03:24:57;15.70;99.90
45735;DHT22;31446;49.632;8.328;2022-10-16T03:40:04;15.50;99.90
45735;DHT22;31446;49.632;8.328;2022-10-16T03:55:10;15.50;99.90
45735;DHT22;31446;49.632;8.328;2022-10-16T04:10:17;15.50;99.90
45735;DHT22;31446;49.632;8.328;2022-10-16T04:25:23;15.50;99.90
45735;DHT22;31446;49.632;8.328;2022-10-16T04:40:29;15.40;99.90
45735;DHT22;31446;49.632;8.328;2022-10-16T04:55:39;15.40;99.90
45735;DHT22;31446;49.632;8.328;2022-10-16T05:10:46;15.40;99.90
45735;DHT22;31446;49.632;8.328;2022-10-16T05:25:57;15.30;99.90
45735;DHT22;31446;49.632;8.328;2022-10-16T05:41:04;15.20;99.90
45735;DHT22;31446;49.632;8.328;2022-10-16T05:56:12;15.10;99.90
45735;DHT22;31446;49.632;8.328;2022-10-16T06:11:20;15.00;99.90
45735;DHT22;31446;49.632;8.328;2022-10-16T06:26:28;15.20;99.90
45735;DHT22;31446;49.632;8.328;2022-10-16T06:41:35;15.40;99.90
45735;DHT22;31446;49.632;8.328;2022-10-16T06:56:41;15.40;99.90
45735;DHT22;31446;49.632;8.328;2022-10-16T07:11:47;15.80;99.90
45735;DHT22;31446;49.632;8.328;2022-10-16T07:26:54;16.00;99.90
45735;DHT22;31446;49.632;8.328;2022-10-16T07:42:00;16.20;99.90
45735;DHT22;31446;49.632;8.328;2022-10-16T07:57:06;16.50;99.90
45735;DHT22;31446;49.632;8.328;2022-10-16T08:12:12;16.60;99.90
45735;DHT22;31446;49.632;8.328;2022-10-16T08:27:19;16.50;99.90
45735;DHT22;31446;49.632;8.328;2022-10-16T08:42:32;16.10;99.90
45735;DHT22;31446;49.632;8.328;2022-10-16T08:57:45;16.00;99.90
45735;DHT22;31446;49.632;8.328;2022-10-16T09:12:55;16.90;99.90
45735;DHT22;31446;49.632;8.328;2022-10-16T09:28:04;17.90;99.90
45735;DHT22;31446;49.632;8.328;2022-10-16T09:43:20;18.20;99.90
45735;DHT22;31446;49.632;8.328;2022-10-16T09:58:27;19.20;99.90
45735;DHT22;31446;49.632;8.328;2022-10-16T10:13:34;21.20;99.90
45735;DHT22;31446;49.632;8.328;2022-10-16T10:28:50;21.40;99.90
45735;DHT22;31446;49.632;8.328;2022-10-16T10:44:07;22.20;99.90
45735;DHT22;31446;49.632;8.328;2022-10-16T10:59:53;22.80;99.90
45735;DHT22;31446;49.632;8.328;2022-10-16T11:15:07;23.10;99.90
45735;DHT22;31446;49.632;8.328;2022-10-16T11:30:20;23.10;99.90
45735;DHT22;31446;49.632;8.328;2022-10-16T11:45:36;22.70;99.90
45735;DHT22;31446;49.632;8.328;2022-10-16T12:00:47;23.10;99.90
45735;DHT22;31446;49.632;8.328;2022-10-16T12:16:18;22.30;99.90
45735;DHT22;31446;49.632;8.328;2022-10-16T12:31:37;23.50;99.90
45735;DHT22;31446;49.632;8.328;2022-10-16T12:46:45;22.70;99.90
45735;DHT22;31446;49.632;8.328;2022-10-16T13:02:11;22.40;99.90
45735;DHT22;31446;49.632;8.328;2022-10-16T13:17:28;23.70;99.90
45735;DHT22;31446;49.632;8.328;2022-10-16T13:32:47;22.20;99.90
45735;DHT22;31446;49.632;8.328;2022-10-16T13:48:05;21.70;99.90
45735;DHT22;31446;49.632;8.328;2022-10-16T14:03:15;21.40;99.90
45735;DHT22;31446;49.632;8.328;2022-10-16T14:18:24;21.50;99.90
45735;DHT22;31446;49.632;8.328;2022-10-16T14:33:34;21.50;99.90
45735;DHT22;31446;49.632;8.328;2022-10-16T14:48:43;21.40;99.90
45735;DHT22;31446;49.632;8.328;2022-10-16T15:03:51;21.40;99.90
45735;DHT22;31446;49.632;8.328;2022-10-16T15:18:58;21.40;99.90
45735;DHT22;31446;49.632;8.328;2022-10-16T15:34:04;21.40;99.90
45735;DHT22;31446;49.632;8.328;2022-10-16T15:49:11;21.00;99.90
45735;DHT22;31446;49.632;8.328;2022-10-16T16:04:17;20.50;99.90
45735;DHT22;31446;49.632;8.328;2022-10-16T16:19:23;19.90;99.90
45735;DHT22;31446;49.632;8.328;2022-10-16T16:34:30;19.50;99.90
45735;DHT22;31446;49.632;8.328;2022-10-16T16:49:36;19.10;99.90
45735;DHT22;31446;49.632;8.328;2022-10-16T17:04:43;18.80;99.90
45735;DHT22;31446;49.632;8.328;2022-10-16T17:19:50;18.30;99.90
45735;DHT22;31446;49.632;8.328;2022-10-16T17:34:56;17.70;99.90
45735;DHT22;31446;49.632;8.328;2022-10-16T17:50:03;17.20;99.90
45735;DHT22;31446;49.632;8.328;2022-10-16T18:05:10;16.70;99.90
45735;DHT22;31446;49.632;8.328;2022-10-16T18:20:16;16.30;99.90
45735;DHT22;31446;49.632;8.328;2022-10-16T18:35:23;16.00;99.90
45735;DHT22;31446;49.632;8.328;2022-10-16T18:50:32;15.80;99.90
45735;DHT22;31446;49.632;8.328;2022-10-16T19:05:38;15.60;99.90
45735;DHT22;31446;49.632;8.328;2022-10-16T19:20:48;15.40;99.90
45735;DHT22;31446;49.632;8.328;2022-10-16T19:35:58;15.20;99.90
45735;DHT22;31446;49.632;8.328;2022-10-16T19:51:13;15.10;99.90
45735;DHT22;31446;49.632;8.328;2022-10-16T20:06:21;15.00;99.90
45735;DHT22;31446;49.632;8.328;2022-10-16T20:21:29;14.90;99.90
45735;DHT22;31446;49.632;8.328;2022-10-16T20:36:38;14.70;99.90
45735;DHT22;31446;49.632;8.328;2022-10-16T20:51:50;14.50;99.90
45735;DHT22;31446;49.632;8.328;2022-10-16T21:07:00;14.40;99.90
45735;DHT22;31446;49.632;8.328;2022-10-16T21:37:58;14.90;99.90
45735;DHT22;31446;49.632;8.328;2022-10-16T21:53:06;15.10;99.90
45735;DHT22;31446;49.632;8.328;2022-10-16T22:08:22;15.00;99.90
45735;DHT22;31446;49.632;8.328;2022-10-16T22:23:28;15.20;99.90
45735;DHT22;31446;49.632;8.328;2022-10-16T22:38:35;15.50;99.90
45735;DHT22;31446;49.632;8.328;2022-10-16T22:53:42;15.80;99.90
45735;DHT22;31446;49.632;8.328;2022-10-16T23:08:52;15.80;99.90
45735;DHT22;31446;49.632;8.328;2022-10-16T23:23:59;15.70;99.90
45735;DHT22;31446;49.632;8.328;2022-10-16T23:39:05;15.60;99.90
45735;DHT22;31446;49.632;8.328;2022-10-16T23:54:11;15.70;99.90
